sensor_id;sensor_type;location;lat;lon;timestamp;P1;durP1;ratioP1;P2;durP2;ratioP2
36009;SDS011;22076;52.182;5.404;2023-02-11T00:02:12;18.63;;;4.75;;
36009;SDS011;22076;52.182;5.404;2023-02-11T00:04:39;24.33;;;6.00;;
36009;SDS011;22076;52.182;5.404;2023-02-11T00:07:05;18.40;;;4.03;;
36009;SDS011;22076;52.182;5.404;2023-02-11T00:09:32;28.63;;;5.55;;
36009;SDS011;22076;52.182;5.404;2023-02-11T00:11:59;24.10;;;5.35;;
36009;SDS011;22076;52.182;5.404;2023-02-11T00:14:26;18.17;;;4.72;;
36009;SDS011;22076;52.182;5.404;2023-02-11T00:16:53;19.17;;;4.07;;
36009;SDS011;22076;52.182;5.404;2023-02-11T00:19:20;16.13;;;4.07;;
36009;SDS011;22076;52.182;5.404;2023-02-11T00:21:46;19.30;;;4.30;;
36009;SDS011;22076;52.182;5.404;2023-02-11T00:24:13;17.13;;;4.47;;
36009;SDS011;22076;52.182;5.404;2023-02-11T00:26:39;23.00;;;4.97;;
36009;SDS011;22076;52.182;5.404;2023-02-11T00:29:06;21.48;;;5.60;;
36009;SDS011;22076;52.182;5.404;2023-02-11T00:31:34;23.50;;;5.78;;
36009;SDS011;22076;52.182;5.404;2023-02-11T00:34:00;25.00;;;4.55;;
36009;SDS011;22076;52.182;5.404;2023-02-11T00:36:27;21.08;;;4.72;;
36009;SDS011;22076;52.182;5.404;2023-02-11T00:38:54;23.25;;;4.90;;
36009;SDS011;22076;52.182;5.404;2023-02-11T00:41:22;18.42;;;4.90;;
36009;SDS011;22076;52.182;5.404;2023-02-11T00:43:50;20.35;;;4.28;;
36009;SDS011;22076;52.182;5.404;2023-02-11T00:46:17;15.30;;;4.43;;
36009;SDS011;22076;52.182;5.404;2023-02-11T00:48:44;18.88;;;4.55;;
36009;SDS011;22076;52.182;5.404;2023-02-11T00:51:11;23.90;;;5.65;;
36009;SDS011;22076;52.182;5.404;2023-02-11T00:53:38;23.55;;;4.60;;
36009;SDS011;22076;52.182;5.404;2023-02-11T00:56:05;26.50;;;5.63;;
36009;SDS011;22076;52.182;5.404;2023-02-11T00:58:32;26.33;;;5.45;;
36009;SDS011;22076;52.182;5.404;2023-02-11T01:00:58;26.55;;;5.72;;
36009;SDS011;22076;52.182;5.404;2023-02-11T01:03:25;15.10;;;4.57;;
36009;SDS011;22076;52.182;5.404;2023-02-11T01:05:53;19.95;;;5.38;;
36009;SDS011;22076;52.182;5.404;2023-02-11T01:08:19;22.02;;;5.22;;
36009;SDS011;22076;52.182;5.404;2023-02-11T01:10:52;19.60;;;5.18;;
36009;SDS011;22076;52.182;5.404;2023-02-11T01:13:19;15.32;;;3.95;;
36009;SDS011;22076;52.182;5.404;2023-02-11T01:15:46;33.80;;;5.70;;
36009;SDS011;22076;52.182;5.404;2023-02-11T01:18:12;29.73;;;5.03;;
36009;SDS011;22076;52.182;5.404;2023-02-11T01:20:39;23.83;;;5.35;;
36009;SDS011;22076;52.182;5.404;2023-02-11T01:23:07;26.58;;;5.25;;
36009;SDS011;22076;52.182;5.404;2023-02-11T01:25:33;19.25;;;4.60;;
36009;SDS011;22076;52.182;5.404;2023-02-11T01:28:00;25.08;;;4.43;;
36009;SDS011;22076;52.182;5.404;2023-02-11T01:30:26;20.25;;;4.97;;
36009;SDS011;22076;52.182;5.404;2023-02-11T01:32:53;36.33;;;5.97;;
36009;SDS011;22076;52.182;5.404;2023-02-11T01:35:21;18.63;;;4.70;;
36009;SDS011;22076;52.182;5.404;2023-02-11T01:37:47;17.40;;;5.13;;
36009;SDS011;22076;52.182;5.404;2023-02-11T01:40:15;21.67;;;4.78;;
36009;SDS011;22076;52.182;5.404;2023-02-11T01:42:42;23.77;;;5.47;;
36009;SDS011;22076;52.182;5.404;2023-02-11T01:48:16;13.43;;;4.32;;
36009;SDS011;22076;52.182;5.404;2023-02-11T01:50:44;15.95;;;4.72;;
36009;SDS011;22076;52.182;5.404;2023-02-11T01:53:11;20.08;;;5.15;;
36009;SDS011;22076;52.182;5.404;2023-02-11T01:55:57;19.08;;;4.38;;
36009;SDS011;22076;52.182;5.404;2023-02-11T01:58:38;20.92;;;6.40;;
36009;SDS011;22076;52.182;5.404;2023-02-11T02:01:07;34.13;;;5.63;;
36009;SDS011;22076;52.182;5.404;2023-02-11T02:03:34;32.47;;;6.70;;
36009;SDS011;22076;52.182;5.404;2023-02-11T02:06:02;26.15;;;6.22;;
36009;SDS011;22076;52.182;5.404;2023-02-11T02:08:34;19.05;;;5.70;;
36009;SDS011;22076;52.182;5.404;2023-02-11T02:11:04;23.85;;;5.93;;
36009;SDS011;22076;52.182;5.404;2023-02-11T02:13:32;17.58;;;5.22;;
36009;SDS011;22076;52.182;5.404;2023-02-11T02:16:00;18.25;;;5.32;;
36009;SDS011;22076;52.182;5.404;2023-02-11T02:18:33;18.55;;;4.38;;
36009;SDS011;22076;52.182;5.404;2023-02-11T02:24:03;26.15;;;5.35;;
36009;SDS011;22076;52.182;5.404;2023-02-11T02:27:02;21.92;;;5.47;;
36009;SDS011;22076;52.182;5.404;2023-02-11T02:29:54;23.17;;;5.03;;
36009;SDS011;22076;52.182;5.404;2023-02-11T02:32:40;21.35;;;5.85;;
36009;SDS011;22076;52.182;5.404;2023-02-11T02:35:14;21.80;;;5.60;;
36009;SDS011;22076;52.182;5.404;2023-02-11T02:37:50;24.67;;;5.40;;
36009;SDS011;22076;52.182;5.404;2023-02-11T02:40:22;21.92;;;5.82;;
36009;SDS011;22076;52.182;5.404;2023-02-11T02:42:51;25.23;;;5.90;;
36009;SDS011;22076;52.182;5.404;2023-02-11T02:45:18;29.60;;;6.00;;
36009;SDS011;22076;52.182;5.404;2023-02-11T02:47:46;23.20;;;6.22;;
36009;SDS011;22076;52.182;5.404;2023-02-11T02:50:12;25.05;;;6.95;;
36009;SDS011;22076;52.182;5.404;2023-02-11T02:52:41;24.92;;;5.75;;
36009;SDS011;22076;52.182;5.404;2023-02-11T02:55:16;25.30;;;5.80;;
36009;SDS011;22076;52.182;5.404;2023-02-11T03:00:52;27.48;;;7.15;;
36009;SDS011;22076;52.182;5.404;2023-02-11T03:05:54;22.90;;;5.93;;
36009;SDS011;22076;52.182;5.404;2023-02-11T03:08:24;12.07;;;4.43;;
36009;SDS011;22076;52.182;5.404;2023-02-11T03:10:55;22.73;;;5.60;;
36009;SDS011;22076;52.182;5.404;2023-02-11T03:13:23;23.05;;;5.43;;
36009;SDS011;22076;52.182;5.404;2023-02-11T03:15:52;15.95;;;5.05;;
36009;SDS011;22076;52.182;5.404;2023-02-11T03:18:21;22.95;;;6.45;;
36009;SDS011;22076;52.182;5.404;2023-02-11T03:20:52;19.23;;;5.45;;
36009;SDS011;22076;52.182;5.404;2023-02-11T03:23:20;20.25;;;5.65;;
36009;SDS011;22076;52.182;5.404;2023-02-11T03:25:49;26.67;;;6.55;;
36009;SDS011;22076;52.182;5.404;2023-02-11T03:28:20;31.95;;;5.88;;
36009;SDS011;22076;52.182;5.404;2023-02-11T03:30:52;19.15;;;5.20;;
36009;SDS011;22076;52.182;5.404;2023-02-11T03:33:23;19.15;;;5.13;;
36009;SDS011;22076;52.182;5.404;2023-02-11T03:35:53;25.15;;;6.72;;
36009;SDS011;22076;52.182;5.404;2023-02-11T03:38:21;20.35;;;6.10;;
36009;SDS011;22076;52.182;5.404;2023-02-11T03:40:51;28.42;;;6.90;;
36009;SDS011;22076;52.182;5.404;2023-02-11T03:43:20;18.38;;;5.63;;
36009;SDS011;22076;52.182;5.404;2023-02-11T03:45:48;24.00;;;6.60;;
36009;SDS011;22076;52.182;5.404;2023-02-11T03:48:17;22.52;;;6.40;;
36009;SDS011;22076;52.182;5.404;2023-02-11T03:50:46;27.85;;;7.40;;
36009;SDS011;22076;52.182;5.404;2023-02-11T03:53:15;19.92;;;5.63;;
36009;SDS011;22076;52.182;5.404;2023-02-11T03:55:43;27.10;;;6.22;;
36009;SDS011;22076;52.182;5.404;2023-02-11T03:58:10;28.75;;;7.30;;
36009;SDS011;22076;52.182;5.404;2023-02-11T04:00:38;23.58;;;7.00;;
36009;SDS011;22076;52.182;5.404;2023-02-11T04:03:06;23.90;;;7.43;;
36009;SDS011;22076;52.182;5.404;2023-02-11T04:05:33;26.23;;;7.80;;
36009;SDS011;22076;52.182;5.404;2023-02-11T04:07:59;24.20;;;7.47;;
36009;SDS011;22076;52.182;5.404;2023-02-11T04:10:27;24.83;;;7.97;;
36009;SDS011;22076;52.182;5.404;2023-02-11T04:12:54;24.52;;;8.25;;
36009;SDS011;22076;52.182;5.404;2023-02-11T04:15:21;21.80;;;7.90;;
36009;SDS011;22076;52.182;5.404;2023-02-11T04:17:47;30.92;;;7.88;;
36009;SDS011;22076;52.182;5.404;2023-02-11T04:20:14;28.13;;;8.30;;
36009;SDS011;22076;52.182;5.404;2023-02-11T04:22:41;22.83;;;8.55;;
36009;SDS011;22076;52.182;5.404;2023-02-11T04:25:08;21.58;;;8.15;;
36009;SDS011;22076;52.182;5.404;2023-02-11T04:27:36;22.60;;;8.93;;
36009;SDS011;22076;52.182;5.404;2023-02-11T04:30:03;29.45;;;10.60;;
36009;SDS011;22076;52.182;5.404;2023-02-11T04:32:30;27.33;;;8.73;;
36009;SDS011;22076;52.182;5.404;2023-02-11T04:34:57;28.02;;;9.68;;
36009;SDS011;22076;52.182;5.404;2023-02-11T04:37:23;26.52;;;9.15;;
36009;SDS011;22076;52.182;5.404;2023-02-11T04:39:50;23.45;;;8.27;;
36009;SDS011;22076;52.182;5.404;2023-02-11T04:42:17;36.47;;;11.25;;
36009;SDS011;22076;52.182;5.404;2023-02-11T04:44:44;31.92;;;10.27;;
36009;SDS011;22076;52.182;5.404;2023-02-11T04:47:11;32.13;;;11.13;;
36009;SDS011;22076;52.182;5.404;2023-02-11T04:49:39;23.27;;;9.90;;
36009;SDS011;22076;52.182;5.404;2023-02-11T04:52:06;27.40;;;10.25;;
36009;SDS011;22076;52.182;5.404;2023-02-11T04:54:33;25.75;;;10.93;;
36009;SDS011;22076;52.182;5.404;2023-02-11T04:56:59;29.95;;;11.90;;
36009;SDS011;22076;52.182;5.404;2023-02-11T04:59:26;31.48;;;12.80;;
36009;SDS011;22076;52.182;5.404;2023-02-11T05:01:54;32.17;;;11.70;;
36009;SDS011;22076;52.182;5.404;2023-02-11T05:04:20;41.35;;;15.90;;
36009;SDS011;22076;52.182;5.404;2023-02-11T05:06:47;46.30;;;16.75;;
36009;SDS011;22076;52.182;5.404;2023-02-11T05:09:14;27.30;;;11.25;;
36009;SDS011;22076;52.182;5.404;2023-02-11T05:11:40;32.38;;;13.00;;
36009;SDS011;22076;52.182;5.404;2023-02-11T05:14:07;41.42;;;15.45;;
36009;SDS011;22076;52.182;5.404;2023-02-11T05:16:33;34.78;;;12.57;;
36009;SDS011;22076;52.182;5.404;2023-02-11T05:19:01;43.25;;;16.48;;
36009;SDS011;22076;52.182;5.404;2023-02-11T05:21:28;41.05;;;14.45;;
36009;SDS011;22076;52.182;5.404;2023-02-11T05:23:55;40.28;;;15.95;;
36009;SDS011;22076;52.182;5.404;2023-02-11T05:26:23;42.90;;;17.40;;
36009;SDS011;22076;52.182;5.404;2023-02-11T05:28:50;48.70;;;15.95;;
36009;SDS011;22076;52.182;5.404;2023-02-11T05:31:17;33.22;;;14.18;;
36009;SDS011;22076;52.182;5.404;2023-02-11T05:33:43;35.88;;;14.77;;
36009;SDS011;22076;52.182;5.404;2023-02-11T05:36:11;36.92;;;14.52;;
36009;SDS011;22076;52.182;5.404;2023-02-11T05:38:38;44.67;;;15.52;;
36009;SDS011;22076;52.182;5.404;2023-02-11T05:41:07;51.58;;;15.45;;
36009;SDS011;22076;52.182;5.404;2023-02-11T05:43:34;48.42;;;16.90;;
36009;SDS011;22076;52.182;5.404;2023-02-11T05:46:01;44.45;;;15.55;;
36009;SDS011;22076;52.182;5.404;2023-02-11T05:48:27;33.03;;;13.55;;
36009;SDS011;22076;52.182;5.404;2023-02-11T05:50:54;41.45;;;16.20;;
36009;SDS011;22076;52.182;5.404;2023-02-11T05:53:22;43.40;;;17.65;;
36009;SDS011;22076;52.182;5.404;2023-02-11T05:55:48;42.20;;;16.58;;
36009;SDS011;22076;52.182;5.404;2023-02-11T05:58:15;40.15;;;16.00;;
36009;SDS011;22076;52.182;5.404;2023-02-11T06:00:41;35.78;;;15.38;;
36009;SDS011;22076;52.182;5.404;2023-02-11T06:03:08;44.85;;;17.48;;
36009;SDS011;22076;52.182;5.404;2023-02-11T06:05:34;47.90;;;19.13;;
36009;SDS011;22076;52.182;5.404;2023-02-11T06:08:01;41.10;;;16.38;;
36009;SDS011;22076;52.182;5.404;2023-02-11T06:10:30;50.63;;;19.50;;
36009;SDS011;22076;52.182;5.404;2023-02-11T06:12:56;45.58;;;15.45;;
36009;SDS011;22076;52.182;5.404;2023-02-11T06:15:23;41.47;;;15.95;;
36009;SDS011;22076;52.182;5.404;2023-02-11T06:17:49;47.28;;;19.42;;
36009;SDS011;22076;52.182;5.404;2023-02-11T06:20:16;54.55;;;19.50;;
36009;SDS011;22076;52.182;5.404;2023-02-11T06:22:43;59.30;;;23.65;;
36009;SDS011;22076;52.182;5.404;2023-02-11T06:25:10;54.60;;;19.60;;
36009;SDS011;22076;52.182;5.404;2023-02-11T06:27:38;66.45;;;20.88;;
36009;SDS011;22076;52.182;5.404;2023-02-11T06:30:05;63.90;;;22.88;;
36009;SDS011;22076;52.182;5.404;2023-02-11T06:32:33;44.40;;;19.33;;
36009;SDS011;22076;52.182;5.404;2023-02-11T06:35:00;54.47;;;20.98;;
36009;SDS011;22076;52.182;5.404;2023-02-11T06:37:26;55.50;;;21.67;;
36009;SDS011;22076;52.182;5.404;2023-02-11T06:39:53;46.00;;;17.83;;
36009;SDS011;22076;52.182;5.404;2023-02-11T06:42:19;45.65;;;18.42;;
36009;SDS011;22076;52.182;5.404;2023-02-11T06:44:47;46.72;;;18.95;;
36009;SDS011;22076;52.182;5.404;2023-02-11T06:47:14;47.00;;;19.15;;
36009;SDS011;22076;52.182;5.404;2023-02-11T06:49:40;41.53;;;18.80;;
36009;SDS011;22076;52.182;5.404;2023-02-11T06:52:07;48.13;;;19.98;;
36009;SDS011;22076;52.182;5.404;2023-02-11T06:54:33;56.85;;;22.38;;
36009;SDS011;22076;52.182;5.404;2023-02-11T06:57:00;59.85;;;23.38;;
36009;SDS011;22076;52.182;5.404;2023-02-11T06:59:27;43.53;;;18.65;;
36009;SDS011;22076;52.182;5.404;2023-02-11T07:01:54;57.20;;;20.63;;
36009;SDS011;22076;52.182;5.404;2023-02-11T07:04:21;47.05;;;19.73;;
36009;SDS011;22076;52.182;5.404;2023-02-11T07:06:47;52.30;;;21.77;;
36009;SDS011;22076;52.182;5.404;2023-02-11T07:09:14;54.42;;;21.65;;
36009;SDS011;22076;52.182;5.404;2023-02-11T07:11:41;56.08;;;20.73;;
36009;SDS011;22076;52.182;5.404;2023-02-11T07:14:09;58.50;;;24.77;;
36009;SDS011;22076;52.182;5.404;2023-02-11T07:16:37;41.97;;;17.27;;
36009;SDS011;22076;52.182;5.404;2023-02-11T07:19:05;62.20;;;24.02;;
36009;SDS011;22076;52.182;5.404;2023-02-11T07:21:31;50.25;;;20.10;;
36009;SDS011;22076;52.182;5.404;2023-02-11T07:23:58;50.67;;;22.92;;
36009;SDS011;22076;52.182;5.404;2023-02-11T07:26:24;44.85;;;18.65;;
36009;SDS011;22076;52.182;5.404;2023-02-11T07:28:51;57.50;;;21.38;;
36009;SDS011;22076;52.182;5.404;2023-02-11T07:31:18;50.45;;;21.02;;
36009;SDS011;22076;52.182;5.404;2023-02-11T07:33:47;50.17;;;21.00;;
36009;SDS011;22076;52.182;5.404;2023-02-11T07:36:15;52.88;;;23.58;;
36009;SDS011;22076;52.182;5.404;2023-02-11T07:38:42;50.75;;;22.27;;
36009;SDS011;22076;52.182;5.404;2023-02-11T07:41:09;50.45;;;20.35;;
36009;SDS011;22076;52.182;5.404;2023-02-11T07:43:36;58.00;;;23.80;;
36009;SDS011;22076;52.182;5.404;2023-02-11T07:46:03;45.60;;;18.55;;
36009;SDS011;22076;52.182;5.404;2023-02-11T07:48:31;70.07;;;26.65;;
36009;SDS011;22076;52.182;5.404;2023-02-11T07:51:04;49.30;;;22.08;;
36009;SDS011;22076;52.182;5.404;2023-02-11T07:53:32;55.00;;;22.13;;
36009;SDS011;22076;52.182;5.404;2023-02-11T07:55:59;59.55;;;24.27;;
36009;SDS011;22076;52.182;5.404;2023-02-11T07:58:25;66.35;;;26.27;;
36009;SDS011;22076;52.182;5.404;2023-02-11T08:00:52;58.10;;;22.88;;
36009;SDS011;22076;52.182;5.404;2023-02-11T08:03:19;54.83;;;22.20;;
36009;SDS011;22076;52.182;5.404;2023-02-11T08:05:45;64.90;;;26.90;;
36009;SDS011;22076;52.182;5.404;2023-02-11T08:08:12;59.88;;;23.88;;
36009;SDS011;22076;52.182;5.404;2023-02-11T08:10:40;53.53;;;22.58;;
36009;SDS011;22076;52.182;5.404;2023-02-11T08:13:06;54.25;;;22.10;;
36009;SDS011;22076;52.182;5.404;2023-02-11T08:15:32;58.80;;;22.40;;
36009;SDS011;22076;52.182;5.404;2023-02-11T08:17:59;48.97;;;19.92;;
36009;SDS011;22076;52.182;5.404;2023-02-11T08:20:26;55.67;;;20.67;;
36009;SDS011;22076;52.182;5.404;2023-02-11T08:22:52;44.55;;;20.55;;
36009;SDS011;22076;52.182;5.404;2023-02-11T08:25:19;50.38;;;21.30;;
36009;SDS011;22076;52.182;5.404;2023-02-11T08:27:46;64.70;;;25.52;;
36009;SDS011;22076;52.182;5.404;2023-02-11T08:30:13;57.25;;;23.30;;
36009;SDS011;22076;52.182;5.404;2023-02-11T08:32:39;60.13;;;23.55;;
36009;SDS011;22076;52.182;5.404;2023-02-11T08:35:06;59.40;;;25.27;;
36009;SDS011;22076;52.182;5.404;2023-02-11T08:37:36;52.72;;;22.60;;
36009;SDS011;22076;52.182;5.404;2023-02-11T08:40:03;53.83;;;22.25;;
36009;SDS011;22076;52.182;5.404;2023-02-11T08:42:30;55.85;;;22.20;;
36009;SDS011;22076;52.182;5.404;2023-02-11T08:44:57;57.97;;;24.25;;
36009;SDS011;22076;52.182;5.404;2023-02-11T08:47:24;53.17;;;23.00;;
36009;SDS011;22076;52.182;5.404;2023-02-11T08:49:51;55.47;;;21.80;;
36009;SDS011;22076;52.182;5.404;2023-02-11T08:52:17;61.42;;;26.35;;
36009;SDS011;22076;52.182;5.404;2023-02-11T08:54:44;53.22;;;23.27;;
36009;SDS011;22076;52.182;5.404;2023-02-11T08:57:11;50.60;;;21.42;;
36009;SDS011;22076;52.182;5.404;2023-02-11T08:59:37;48.38;;;19.35;;
36009;SDS011;22076;52.182;5.404;2023-02-11T09:02:08;57.17;;;23.35;;
36009;SDS011;22076;52.182;5.404;2023-02-11T09:04:36;59.40;;;25.10;;
36009;SDS011;22076;52.182;5.404;2023-02-11T09:07:02;50.70;;;22.55;;
36009;SDS011;22076;52.182;5.404;2023-02-11T09:09:29;56.08;;;23.65;;
36009;SDS011;22076;52.182;5.404;2023-02-11T09:11:56;52.90;;;21.33;;
36009;SDS011;22076;52.182;5.404;2023-02-11T09:14:25;44.40;;;21.23;;
36009;SDS011;22076;52.182;5.404;2023-02-11T09:16:51;46.55;;;19.60;;
36009;SDS011;22076;52.182;5.404;2023-02-11T09:19:19;57.55;;;24.73;;
36009;SDS011;22076;52.182;5.404;2023-02-11T09:21:47;53.72;;;21.40;;
36009;SDS011;22076;52.182;5.404;2023-02-11T09:24:14;62.25;;;24.63;;
36009;SDS011;22076;52.182;5.404;2023-02-11T09:26:41;62.28;;;24.10;;
36009;SDS011;22076;52.182;5.404;2023-02-11T09:29:08;55.03;;;23.42;;
36009;SDS011;22076;52.182;5.404;2023-02-11T09:31:34;66.72;;;25.83;;
36009;SDS011;22076;52.182;5.404;2023-02-11T09:34:02;52.85;;;21.98;;
36009;SDS011;22076;52.182;5.404;2023-02-11T09:36:32;53.55;;;23.23;;
36009;SDS011;22076;52.182;5.404;2023-02-11T09:39:02;46.35;;;20.95;;
36009;SDS011;22076;52.182;5.404;2023-02-11T09:41:36;54.67;;;21.33;;
36009;SDS011;22076;52.182;5.404;2023-02-11T09:44:07;45.90;;;19.80;;
36009;SDS011;22076;52.182;5.404;2023-02-11T09:46:44;53.42;;;24.27;;
36009;SDS011;22076;52.182;5.404;2023-02-11T09:49:14;59.13;;;22.60;;
36009;SDS011;22076;52.182;5.404;2023-02-11T09:51:45;45.92;;;20.60;;
36009;SDS011;22076;52.182;5.404;2023-02-11T09:54:16;52.25;;;19.40;;
36009;SDS011;22076;52.182;5.404;2023-02-11T09:56:45;46.08;;;20.25;;
36009;SDS011;22076;52.182;5.404;2023-02-11T09:59:12;54.03;;;22.17;;
36009;SDS011;22076;52.182;5.404;2023-02-11T10:01:40;43.22;;;20.52;;
36009;SDS011;22076;52.182;5.404;2023-02-11T10:04:13;45.75;;;20.50;;
36009;SDS011;22076;52.182;5.404;2023-02-11T10:06:47;42.53;;;20.77;;
36009;SDS011;22076;52.182;5.404;2023-02-11T10:09:18;54.67;;;22.65;;
36009;SDS011;22076;52.182;5.404;2023-02-11T10:11:55;51.70;;;22.90;;
36009;SDS011;22076;52.182;5.404;2023-02-11T10:14:37;50.70;;;22.25;;
36009;SDS011;22076;52.182;5.404;2023-02-11T10:17:14;60.17;;;26.17;;
36009;SDS011;22076;52.182;5.404;2023-02-11T10:19:50;44.40;;;21.25;;
36009;SDS011;22076;52.182;5.404;2023-02-11T10:22:29;65.95;;;21.45;;
36009;SDS011;22076;52.182;5.404;2023-02-11T10:24:58;50.38;;;21.50;;
36009;SDS011;22076;52.182;5.404;2023-02-11T10:27:26;44.25;;;20.25;;
36009;SDS011;22076;52.182;5.404;2023-02-11T10:29:55;48.40;;;21.13;;
36009;SDS011;22076;52.182;5.404;2023-02-11T10:32:28;43.33;;;21.95;;
36009;SDS011;22076;52.182;5.404;2023-02-11T10:34:59;45.03;;;20.33;;
36009;SDS011;22076;52.182;5.404;2023-02-11T10:37:29;42.40;;;18.30;;
36009;SDS011;22076;52.182;5.404;2023-02-11T10:39:55;48.55;;;21.98;;
36009;SDS011;22076;52.182;5.404;2023-02-11T10:42:22;46.35;;;20.92;;
36009;SDS011;22076;52.182;5.404;2023-02-11T10:44:53;49.22;;;22.10;;
36009;SDS011;22076;52.182;5.404;2023-02-11T10:47:23;44.42;;;21.38;;
36009;SDS011;22076;52.182;5.404;2023-02-11T10:49:52;47.97;;;20.85;;
36009;SDS011;22076;52.182;5.404;2023-02-11T10:52:20;45.78;;;20.08;;
36009;SDS011;22076;52.182;5.404;2023-02-11T10:55:02;44.40;;;20.15;;
36009;SDS011;22076;52.182;5.404;2023-02-11T10:57:34;36.90;;;18.67;;
36009;SDS011;22076;52.182;5.404;2023-02-11T11:00:04;43.35;;;21.38;;
36009;SDS011;22076;52.182;5.404;2023-02-11T11:02:35;43.38;;;21.65;;
36009;SDS011;22076;52.182;5.404;2023-02-11T11:05:14;40.97;;;19.67;;
36009;SDS011;22076;52.182;5.404;2023-02-11T11:07:50;39.28;;;18.48;;
36009;SDS011;22076;52.182;5.404;2023-02-11T11:10:25;34.05;;;17.20;;
36009;SDS011;22076;52.182;5.404;2023-02-11T11:12:54;38.03;;;17.85;;
36009;SDS011;22076;52.182;5.404;2023-02-11T11:15:21;38.03;;;17.98;;
36009;SDS011;22076;52.182;5.404;2023-02-11T11:17:49;34.42;;;18.02;;
36009;SDS011;22076;52.182;5.404;2023-02-11T11:20:21;37.15;;;16.55;;
36009;SDS011;22076;52.182;5.404;2023-02-11T11:22:49;35.00;;;18.60;;
36009;SDS011;22076;52.182;5.404;2023-02-11T11:25:25;31.65;;;15.93;;
36009;SDS011;22076;52.182;5.404;2023-02-11T11:27:53;31.00;;;15.93;;
36009;SDS011;22076;52.182;5.404;2023-02-11T11:30:22;34.10;;;17.45;;
36009;SDS011;22076;52.182;5.404;2023-02-11T11:32:52;33.33;;;15.77;;
36009;SDS011;22076;52.182;5.404;2023-02-11T11:35:23;31.13;;;15.68;;
36009;SDS011;22076;52.182;5.404;2023-02-11T11:37:52;27.17;;;15.47;;
36009;SDS011;22076;52.182;5.404;2023-02-11T11:40:23;33.58;;;14.63;;
36009;SDS011;22076;52.182;5.404;2023-02-11T11:43:05;29.85;;;15.15;;
36009;SDS011;22076;52.182;5.404;2023-02-11T11:45:51;28.55;;;13.30;;
36009;SDS011;22076;52.182;5.404;2023-02-11T11:48:20;25.65;;;13.95;;
36009;SDS011;22076;52.182;5.404;2023-02-11T11:50:48;27.02;;;14.40;;
36009;SDS011;22076;52.182;5.404;2023-02-11T11:53:19;28.30;;;14.20;;
36009;SDS011;22076;52.182;5.404;2023-02-11T11:55:50;30.13;;;14.02;;
36009;SDS011;22076;52.182;5.404;2023-02-11T11:58:23;25.98;;;12.65;;
36009;SDS011;22076;52.182;5.404;2023-02-11T12:00:51;26.33;;;13.55;;
36009;SDS011;22076;52.182;5.404;2023-02-11T12:06:38;25.35;;;13.77;;
36009;SDS011;22076;52.182;5.404;2023-02-11T12:09:13;25.37;;;12.77;;
36009;SDS011;22076;52.182;5.404;2023-02-11T12:11:59;22.42;;;12.52;;
36009;SDS011;22076;52.182;5.404;2023-02-11T12:14:36;28.33;;;12.93;;
36009;SDS011;22076;52.182;5.404;2023-02-11T12:17:10;23.55;;;11.98;;
36009;SDS011;22076;52.182;5.404;2023-02-11T12:19:46;17.73;;;10.85;;
36009;SDS011;22076;52.182;5.404;2023-02-11T12:22:24;25.52;;;12.80;;
36009;SDS011;22076;52.182;5.404;2023-02-11T12:24:59;20.42;;;11.10;;
36009;SDS011;22076;52.182;5.404;2023-02-11T12:27:41;17.83;;;10.85;;
36009;SDS011;22076;52.182;5.404;2023-02-11T12:30:34;26.67;;;12.93;;
36009;SDS011;22076;52.182;5.404;2023-02-11T12:33:21;26.33;;;12.50;;
36009;SDS011;22076;52.182;5.404;2023-02-11T12:35:55;21.35;;;11.15;;
36009;SDS011;22076;52.182;5.404;2023-02-11T12:38:28;21.45;;;10.70;;
36009;SDS011;22076;52.182;5.404;2023-02-11T12:41:04;22.75;;;11.90;;
36009;SDS011;22076;52.182;5.404;2023-02-11T12:43:42;21.27;;;11.45;;
36009;SDS011;22076;52.182;5.404;2023-02-11T12:52:15;19.57;;;11.73;;
36009;SDS011;22076;52.182;5.404;2023-02-11T12:54:50;17.63;;;9.38;;
36009;SDS011;22076;52.182;5.404;2023-02-11T12:57:20;16.88;;;9.38;;
36009;SDS011;22076;52.182;5.404;2023-02-11T12:59:52;18.90;;;10.07;;
36009;SDS011;22076;52.182;5.404;2023-02-11T13:02:26;17.92;;;9.27;;
36009;SDS011;22076;52.182;5.404;2023-02-11T13:05:00;18.73;;;9.60;;
36009;SDS011;22076;52.182;5.404;2023-02-11T13:07:28;18.25;;;10.10;;
36009;SDS011;22076;52.182;5.404;2023-02-11T13:09:58;22.50;;;11.75;;
36009;SDS011;22076;52.182;5.404;2023-02-11T13:12:27;16.70;;;9.35;;
36009;SDS011;22076;52.182;5.404;2023-02-11T13:15:14;17.45;;;9.10;;
36009;SDS011;22076;52.182;5.404;2023-02-11T13:17:43;20.55;;;11.27;;
36009;SDS011;22076;52.182;5.404;2023-02-11T13:20:19;19.92;;;11.98;;
36009;SDS011;22076;52.182;5.404;2023-02-11T13:22:53;16.05;;;9.38;;
36009;SDS011;22076;52.182;5.404;2023-02-11T13:25:24;14.73;;;9.95;;
36009;SDS011;22076;52.182;5.404;2023-02-11T13:27:57;14.82;;;8.35;;
36009;SDS011;22076;52.182;5.404;2023-02-11T13:30:27;14.80;;;8.18;;
36009;SDS011;22076;52.182;5.404;2023-02-11T13:33:04;16.73;;;9.52;;
36009;SDS011;22076;52.182;5.404;2023-02-11T13:35:42;17.15;;;10.13;;
36009;SDS011;22076;52.182;5.404;2023-02-11T13:38:16;16.70;;;8.93;;
36009;SDS011;22076;52.182;5.404;2023-02-11T13:40:47;20.35;;;9.10;;
36009;SDS011;22076;52.182;5.404;2023-02-11T13:43:27;13.38;;;8.38;;
36009;SDS011;22076;52.182;5.404;2023-02-11T13:45:58;16.95;;;9.27;;
36009;SDS011;22076;52.182;5.404;2023-02-11T13:48:26;20.17;;;10.18;;
36009;SDS011;22076;52.182;5.404;2023-02-11T13:50:55;15.35;;;8.55;;
36009;SDS011;22076;52.182;5.404;2023-02-11T13:53:23;17.10;;;9.57;;
36009;SDS011;22076;52.182;5.404;2023-02-11T13:55:50;16.02;;;8.50;;
36009;SDS011;22076;52.182;5.404;2023-02-11T13:58:32;16.40;;;8.75;;
36009;SDS011;22076;52.182;5.404;2023-02-11T14:01:05;16.17;;;8.00;;
36009;SDS011;22076;52.182;5.404;2023-02-11T14:03:33;12.80;;;7.50;;
36009;SDS011;22076;52.182;5.404;2023-02-11T14:06:21;18.13;;;8.45;;
36009;SDS011;22076;52.182;5.404;2023-02-11T14:17:46;16.00;;;7.38;;
36009;SDS011;22076;52.182;5.404;2023-02-11T14:20:32;14.50;;;6.97;;
36009;SDS011;22076;52.182;5.404;2023-02-11T14:23:00;13.90;;;7.30;;
36009;SDS011;22076;52.182;5.404;2023-02-11T14:25:30;16.17;;;9.50;;
36009;SDS011;22076;52.182;5.404;2023-02-11T14:27:58;14.50;;;8.52;;
36009;SDS011;22076;52.182;5.404;2023-02-11T14:30:31;13.13;;;7.82;;
36009;SDS011;22076;52.182;5.404;2023-02-11T14:33:24;18.65;;;10.15;;
36009;SDS011;22076;52.182;5.404;2023-02-11T14:36:42;14.82;;;8.32;;
36009;SDS011;22076;52.182;5.404;2023-02-11T14:39:15;17.70;;;8.30;;
36009;SDS011;22076;52.182;5.404;2023-02-11T14:41:47;9.80;;;6.60;;
36009;SDS011;22076;52.182;5.404;2023-02-11T14:44:15;14.50;;;7.50;;
36009;SDS011;22076;52.182;5.404;2023-02-11T14:46:43;14.13;;;7.70;;
36009;SDS011;22076;52.182;5.404;2023-02-11T14:49:15;16.13;;;9.50;;
36009;SDS011;22076;52.182;5.404;2023-02-11T14:51:46;24.42;;;13.00;;
36009;SDS011;22076;52.182;5.404;2023-02-11T14:54:15;14.27;;;7.60;;
36009;SDS011;22076;52.182;5.404;2023-02-11T14:56:43;11.85;;;7.18;;
36009;SDS011;22076;52.182;5.404;2023-02-11T14:59:15;14.00;;;8.52;;
36009;SDS011;22076;52.182;5.404;2023-02-11T15:01:44;12.85;;;6.50;;
36009;SDS011;22076;52.182;5.404;2023-02-11T15:04:22;16.42;;;8.15;;
36009;SDS011;22076;52.182;5.404;2023-02-11T15:06:49;11.60;;;7.68;;
36009;SDS011;22076;52.182;5.404;2023-02-11T15:09:16;13.95;;;8.15;;
36009;SDS011;22076;52.182;5.404;2023-02-11T15:11:45;11.32;;;7.20;;